sensor_id;sensor_type;location;lat;lon;timestamp;temperature;humidity
5334;DHT22;2689;50.954;7.116;2023-07-20T00:01:39;18.10;99.90
5334;DHT22;2689;50.954;7.116;2023-07-20T00:04:10;18.10;99.90
5334;DHT22;2689;50.954;7.116;2023-07-20T00:06:36;18.10;99.90
5334;DHT22;2689;50.954;7.116;2023-07-20T00:09:05;18.20;99.90
5334;DHT22;2689;50.954;7.116;2023-07-20T00:11:36;18.20;99.90
5334;DHT22;2689;50.954;7.116;2023-07-20T00:14:04;18.20;99.90
5334;DHT22;2689;50.954;7.116;2023-07-20T00:16:31;18.20;99.90
5334;DHT22;2689;50.954;7.116;2023-07-20T00:18:58;18.20;99.90
5334;DHT22;2689;50.954;7.116;2023-07-20T00:21:25;18.20;99.90
5334;DHT22;2689;50.954;7.116;2023-07-20T00:23:52;18.20;99.90
5334;DHT22;2689;50.954;7.116;2023-07-20T00:26:19;18.20;99.90
5334;DHT22;2689;50.954;7.116;2023-07-20T00:28:46;18.20;99.90
5334;DHT22;2689;50.954;7.116;2023-07-20T00:31:14;18.20;99.90
5334;DHT22;2689;50.954;7.116;2023-07-20T00:33:40;18.30;99.90
5334;DHT22;2689;50.954;7.116;2023-07-20T00:36:07;18.20;99.90
5334;DHT22;2689;50.954;7.116;2023-07-20T00:38:34;18.20;99.90
5334;DHT22;2689;50.954;7.116;2023-07-20T00:41:00;18.20;99.90
5334;DHT22;2689;50.954;7.116;2023-07-20T00:43:27;18.30;99.90
5334;DHT22;2689;50.954;7.116;2023-07-20T00:45:54;18.20;99.90
5334;DHT22;2689;50.954;7.116;2023-07-20T00:48:22;18.30;99.90
5334;DHT22;2689;50.954;7.116;2023-07-20T00:50:50;18.30;99.90
5334;DHT22;2689;50.954;7.116;2023-07-20T00:53:17;18.30;99.90
5334;DHT22;2689;50.954;7.116;2023-07-20T00:55:44;18.40;99.90
5334;DHT22;2689;50.954;7.116;2023-07-20T00:58:10;18.40;99.90
5334;DHT22;2689;50.954;7.116;2023-07-20T01:00:37;18.40;99.90
5334;DHT22;2689;50.954;7.116;2023-07-20T01:03:04;18.40;99.90
5334;DHT22;2689;50.954;7.116;2023-07-20T01:05:40;18.40;99.90
5334;DHT22;2689;50.954;7.116;2023-07-20T01:08:13;18.40;99.90
5334;DHT22;2689;50.954;7.116;2023-07-20T01:10:44;18.30;99.90
5334;DHT22;2689;50.954;7.116;2023-07-20T01:13:14;18.30;99.90
5334;DHT22;2689;50.954;7.116;2023-07-20T01:15:42;18.30;99.90
5334;DHT22;2689;50.954;7.116;2023-07-20T01:18:08;18.30;99.90
5334;DHT22;2689;50.954;7.116;2023-07-20T01:20:37;18.30;99.90
5334;DHT22;2689;50.954;7.116;2023-07-20T01:23:29;18.30;99.90
5334;DHT22;2689;50.954;7.116;2023-07-20T01:26:09;18.20;99.90
5334;DHT22;2689;50.954;7.116;2023-07-20T01:28:54;18.30;99.90
5334;DHT22;2689;50.954;7.116;2023-07-20T01:31:27;18.30;99.90
5334;DHT22;2689;50.954;7.116;2023-07-20T01:33:56;18.30;99.90
5334;DHT22;2689;50.954;7.116;2023-07-20T01:36:24;18.30;99.90
5334;DHT22;2689;50.954;7.116;2023-07-20T01:38:52;18.30;99.90
5334;DHT22;2689;50.954;7.116;2023-07-20T01:41:20;18.30;99.90
5334;DHT22;2689;50.954;7.116;2023-07-20T01:43:47;18.30;99.90
5334;DHT22;2689;50.954;7.116;2023-07-20T01:46:14;18.20;99.90
5334;DHT22;2689;50.954;7.116;2023-07-20T01:48:42;18.20;99.90
5334;DHT22;2689;50.954;7.116;2023-07-20T01:51:09;18.30;99.90
5334;DHT22;2689;50.954;7.116;2023-07-20T01:53:35;18.30;99.90
5334;DHT22;2689;50.954;7.116;2023-07-20T01:56:02;18.30;99.90
5334;DHT22;2689;50.954;7.116;2023-07-20T01:58:29;18.20;99.90
5334;DHT22;2689;50.954;7.116;2023-07-20T02:00:55;18.20;99.90
5334;DHT22;2689;50.954;7.116;2023-07-20T02:03:22;18.20;99.90
5334;DHT22;2689;50.954;7.116;2023-07-20T02:05:52;18.20;99.90
5334;DHT22;2689;50.954;7.116;2023-07-20T02:08:19;18.10;99.90
5334;DHT22;2689;50.954;7.116;2023-07-20T02:10:46;18.00;99.90
5334;DHT22;2689;50.954;7.116;2023-07-20T02:13:13;18.10;99.90
5334;DHT22;2689;50.954;7.116;2023-07-20T02:15:40;18.00;99.90
5334;DHT22;2689;50.954;7.116;2023-07-20T02:18:08;18.00;99.90
5334;DHT22;2689;50.954;7.116;2023-07-20T02:20:35;18.00;99.90
5334;DHT22;2689;50.954;7.116;2023-07-20T02:23:03;18.00;99.90
5334;DHT22;2689;50.954;7.116;2023-07-20T02:25:29;18.10;99.90
5334;DHT22;2689;50.954;7.116;2023-07-20T02:27:56;18.00;99.90
5334;DHT22;2689;50.954;7.116;2023-07-20T02:30:23;18.00;99.90
5334;DHT22;2689;50.954;7.116;2023-07-20T02:32:50;18.00;99.90
5334;DHT22;2689;50.954;7.116;2023-07-20T02:35:17;18.00;99.90
5334;DHT22;2689;50.954;7.116;2023-07-20T02:37:44;17.80;99.90
5334;DHT22;2689;50.954;7.116;2023-07-20T02:40:12;17.90;99.90
5334;DHT22;2689;50.954;7.116;2023-07-20T02:42:39;17.80;99.90
5334;DHT22;2689;50.954;7.116;2023-07-20T02:45:07;17.80;99.90
5334;DHT22;2689;50.954;7.116;2023-07-20T02:47:34;17.70;99.90
5334;DHT22;2689;50.954;7.116;2023-07-20T02:50:00;17.60;99.90
5334;DHT22;2689;50.954;7.116;2023-07-20T02:52:27;17.60;99.90
5334;DHT22;2689;50.954;7.116;2023-07-20T02:54:55;17.50;99.90
5334;DHT22;2689;50.954;7.116;2023-07-20T02:57:23;17.50;99.90
5334;DHT22;2689;50.954;7.116;2023-07-20T02:59:50;17.40;99.90
5334;DHT22;2689;50.954;7.116;2023-07-20T03:02:16;17.30;99.90
5334;DHT22;2689;50.954;7.116;2023-07-20T03:04:43;17.40;99.90
5334;DHT22;2689;50.954;7.116;2023-07-20T03:07:10;17.30;99.90
5334;DHT22;2689;50.954;7.116;2023-07-20T03:09:37;17.20;99.90
5334;DHT22;2689;50.954;7.116;2023-07-20T03:12:04;17.20;99.90
5334;DHT22;2689;50.954;7.116;2023-07-20T03:14:32;17.10;99.90
5334;DHT22;2689;50.954;7.116;2023-07-20T03:16:59;17.10;99.90
5334;DHT22;2689;50.954;7.116;2023-07-20T03:19:26;17.00;99.90
5334;DHT22;2689;50.954;7.116;2023-07-20T03:21:53;17.20;99.90
5334;DHT22;2689;50.954;7.116;2023-07-20T03:24:20;17.30;99.90
5334;DHT22;2689;50.954;7.116;2023-07-20T03:26:49;17.30;99.90
5334;DHT22;2689;50.954;7.116;2023-07-20T03:29:16;17.30;99.90
5334;DHT22;2689;50.954;7.116;2023-07-20T03:31:44;17.30;99.90
5334;DHT22;2689;50.954;7.116;2023-07-20T03:34:11;17.40;99.90
5334;DHT22;2689;50.954;7.116;2023-07-20T03:36:38;17.40;99.90
5334;DHT22;2689;50.954;7.116;2023-07-20T03:39:05;17.50;99.90
5334;DHT22;2689;50.954;7.116;2023-07-20T03:41:31;17.30;99.90
5334;DHT22;2689;50.954;7.116;2023-07-20T03:43:58;17.40;99.90
5334;DHT22;2689;50.954;7.116;2023-07-20T03:46:25;17.30;99.90
5334;DHT22;2689;50.954;7.116;2023-07-20T03:48:53;17.30;99.90
5334;DHT22;2689;50.954;7.116;2023-07-20T03:51:20;17.40;99.90
5334;DHT22;2689;50.954;7.116;2023-07-20T03:53:46;17.30;99.90
5334;DHT22;2689;50.954;7.116;2023-07-20T03:56:13;17.30;99.90
5334;DHT22;2689;50.954;7.116;2023-07-20T03:58:40;17.30;99.90
5334;DHT22;2689;50.954;7.116;2023-07-20T04:01:07;17.30;99.90
5334;DHT22;2689;50.954;7.116;2023-07-20T04:03:35;17.30;99.90
5334;DHT22;2689;50.954;7.116;2023-07-20T04:06:03;17.40;99.90
5334;DHT22;2689;50.954;7.116;2023-07-20T04:08:30;17.40;99.90
5334;DHT22;2689;50.954;7.116;2023-07-20T04:10:56;17.40;99.90
5334;DHT22;2689;50.954;7.116;2023-07-20T04:13:23;17.40;99.90
5334;DHT22;2689;50.954;7.116;2023-07-20T04:15:50;17.40;99.90
5334;DHT22;2689;50.954;7.116;2023-07-20T04:18:16;17.40;99.90
5334;DHT22;2689;50.954;7.116;2023-07-20T04:20:43;17.40;99.90
5334;DHT22;2689;50.954;7.116;2023-07-20T04:23:11;17.50;99.90
5334;DHT22;2689;50.954;7.116;2023-07-20T04:25:39;17.50;99.90
5334;DHT22;2689;50.954;7.116;2023-07-20T04:28:06;17.50;99.90
5334;DHT22;2689;50.954;7.116;2023-07-20T04:30:35;17.50;99.90
5334;DHT22;2689;50.954;7.116;2023-07-20T04:33:02;17.60;99.90
5334;DHT22;2689;50.954;7.116;2023-07-20T04:35:45;17.50;99.90
5334;DHT22;2689;50.954;7.116;2023-07-20T04:38:13;17.50;99.90
5334;DHT22;2689;50.954;7.116;2023-07-20T04:40:41;17.50;99.90
5334;DHT22;2689;50.954;7.116;2023-07-20T04:43:08;17.50;99.90
5334;DHT22;2689;50.954;7.116;2023-07-20T04:45:35;17.50;99.90
5334;DHT22;2689;50.954;7.116;2023-07-20T04:48:01;17.50;99.90
5334;DHT22;2689;50.954;7.116;2023-07-20T04:50:28;17.50;99.90
5334;DHT22;2689;50.954;7.116;2023-07-20T04:52:55;17.50;99.90
5334;DHT22;2689;50.954;7.116;2023-07-20T04:55:23;17.60;99.90
5334;DHT22;2689;50.954;7.116;2023-07-20T04:57:50;17.60;99.90
5334;DHT22;2689;50.954;7.116;2023-07-20T05:00:17;17.60;99.90
5334;DHT22;2689;50.954;7.116;2023-07-20T05:02:44;17.70;99.90
5334;DHT22;2689;50.954;7.116;2023-07-20T05:05:13;17.70;99.90
5334;DHT22;2689;50.954;7.116;2023-07-20T05:07:39;17.70;99.90
5334;DHT22;2689;50.954;7.116;2023-07-20T05:10:07;17.70;99.90
5334;DHT22;2689;50.954;7.116;2023-07-20T05:12:35;17.80;99.90
5334;DHT22;2689;50.954;7.116;2023-07-20T05:15:02;17.80;99.90
5334;DHT22;2689;50.954;7.116;2023-07-20T05:17:29;17.80;99.90
5334;DHT22;2689;50.954;7.116;2023-07-20T05:19:56;17.80;99.90
5334;DHT22;2689;50.954;7.116;2023-07-20T05:22:23;17.90;99.90
5334;DHT22;2689;50.954;7.116;2023-07-20T05:24:50;17.90;99.90
5334;DHT22;2689;50.954;7.116;2023-07-20T05:27:18;18.00;99.90
5334;DHT22;2689;50.954;7.116;2023-07-20T05:29:46;18.00;99.90
5334;DHT22;2689;50.954;7.116;2023-07-20T05:32:13;18.10;99.90
5334;DHT22;2689;50.954;7.116;2023-07-20T05:34:39;18.10;99.90
5334;DHT22;2689;50.954;7.116;2023-07-20T05:37:06;18.00;99.90
5334;DHT22;2689;50.954;7.116;2023-07-20T05:39:33;18.10;99.90
5334;DHT22;2689;50.954;7.116;2023-07-20T05:41:59;18.10;99.90
5334;DHT22;2689;50.954;7.116;2023-07-20T05:44:26;18.00;99.90
5334;DHT22;2689;50.954;7.116;2023-07-20T05:46:54;18.00;99.90
5334;DHT22;2689;50.954;7.116;2023-07-20T05:49:22;17.90;99.90
5334;DHT22;2689;50.954;7.116;2023-07-20T05:51:48;17.90;99.90
5334;DHT22;2689;50.954;7.116;2023-07-20T05:54:15;17.90;99.90
5334;DHT22;2689;50.954;7.116;2023-07-20T05:56:42;17.90;99.90
5334;DHT22;2689;50.954;7.116;2023-07-20T05:59:09;18.00;99.90
5334;DHT22;2689;50.954;7.116;2023-07-20T06:01:35;18.10;99.90
5334;DHT22;2689;50.954;7.116;2023-07-20T06:04:04;18.00;99.90
5334;DHT22;2689;50.954;7.116;2023-07-20T06:06:30;18.00;99.90
5334;DHT22;2689;50.954;7.116;2023-07-20T06:08:57;18.10;99.90
5334;DHT22;2689;50.954;7.116;2023-07-20T06:11:24;18.10;99.90
5334;DHT22;2689;50.954;7.116;2023-07-20T06:13:50;18.20;99.90
5334;DHT22;2689;50.954;7.116;2023-07-20T06:16:17;18.20;99.90
5334;DHT22;2689;50.954;7.116;2023-07-20T06:18:44;18.20;99.90
5334;DHT22;2689;50.954;7.116;2023-07-20T06:21:13;18.20;99.90
5334;DHT22;2689;50.954;7.116;2023-07-20T06:23:40;18.10;99.90
5334;DHT22;2689;50.954;7.116;2023-07-20T06:26:07;18.10;99.90
5334;DHT22;2689;50.954;7.116;2023-07-20T06:28:34;18.10;99.90
5334;DHT22;2689;50.954;7.116;2023-07-20T06:31:01;18.20;99.90
5334;DHT22;2689;50.954;7.116;2023-07-20T06:33:29;18.30;99.90
5334;DHT22;2689;50.954;7.116;2023-07-20T06:35:55;18.40;99.90
5334;DHT22;2689;50.954;7.116;2023-07-20T06:38:24;18.50;99.90
5334;DHT22;2689;50.954;7.116;2023-07-20T06:40:51;18.50;99.90
5334;DHT22;2689;50.954;7.116;2023-07-20T06:43:18;18.50;99.90
5334;DHT22;2689;50.954;7.116;2023-07-20T06:45:45;18.50;99.90
5334;DHT22;2689;50.954;7.116;2023-07-20T06:48:17;18.50;99.90
5334;DHT22;2689;50.954;7.116;2023-07-20T06:50:44;18.50;99.90
5334;DHT22;2689;50.954;7.116;2023-07-20T06:53:10;18.50;99.90
5334;DHT22;2689;50.954;7.116;2023-07-20T06:55:38;18.70;99.90
5334;DHT22;2689;50.954;7.116;2023-07-20T06:58:05;18.80;99.90
5334;DHT22;2689;50.954;7.116;2023-07-20T07:00:32;19.00;99.90
5334;DHT22;2689;50.954;7.116;2023-07-20T07:02:59;19.10;99.90
5334;DHT22;2689;50.954;7.116;2023-07-20T07:05:25;19.20;99.90
5334;DHT22;2689;50.954;7.116;2023-07-20T07:07:52;19.30;99.90
5334;DHT22;2689;50.954;7.116;2023-07-20T07:10:19;19.20;99.90
5334;DHT22;2689;50.954;7.116;2023-07-20T07:12:47;19.30;99.90
5334;DHT22;2689;50.954;7.116;2023-07-20T07:15:13;19.20;99.90
5334;DHT22;2689;50.954;7.116;2023-07-20T07:17:41;19.30;99.90
5334;DHT22;2689;50.954;7.116;2023-07-20T07:20:09;19.40;99.90
5334;DHT22;2689;50.954;7.116;2023-07-20T07:22:36;19.50;99.90
5334;DHT22;2689;50.954;7.116;2023-07-20T07:25:03;19.80;99.90
5334;DHT22;2689;50.954;7.116;2023-07-20T07:27:30;19.90;99.90
5334;DHT22;2689;50.954;7.116;2023-07-20T07:29:58;20.10;99.90
5334;DHT22;2689;50.954;7.116;2023-07-20T07:32:25;20.30;99.90
5334;DHT22;2689;50.954;7.116;2023-07-20T07:34:52;20.50;99.20
5334;DHT22;2689;50.954;7.116;2023-07-20T07:37:19;20.60;97.40
5334;DHT22;2689;50.954;7.116;2023-07-20T07:39:46;20.60;97.90
5334;DHT22;2689;50.954;7.116;2023-07-20T07:42:12;20.70;96.80
5334;DHT22;2689;50.954;7.116;2023-07-20T07:44:39;20.80;96.50
5334;DHT22;2689;50.954;7.116;2023-07-20T07:47:07;20.80;96.30
5334;DHT22;2689;50.954;7.116;2023-07-20T07:49:34;20.70;96.50
5334;DHT22;2689;50.954;7.116;2023-07-20T07:52:01;20.70;96.40
5334;DHT22;2689;50.954;7.116;2023-07-20T07:54:28;20.80;96.10
5334;DHT22;2689;50.954;7.116;2023-07-20T07:56:55;20.80;96.00
5334;DHT22;2689;50.954;7.116;2023-07-20T07:59:22;20.80;96.10
5334;DHT22;2689;50.954;7.116;2023-07-20T08:01:49;20.90;95.10
5334;DHT22;2689;50.954;7.116;2023-07-20T08:04:17;21.00;95.60
5334;DHT22;2689;50.954;7.116;2023-07-20T08:06:44;21.30;94.90
5334;DHT22;2689;50.954;7.116;2023-07-20T08:09:11;21.40;93.40
5334;DHT22;2689;50.954;7.116;2023-07-20T08:11:39;21.60;93.40
5334;DHT22;2689;50.954;7.116;2023-07-20T08:14:05;22.10;93.10
5334;DHT22;2689;50.954;7.116;2023-07-20T08:16:33;22.30;91.30
5334;DHT22;2689;50.954;7.116;2023-07-20T08:18:59;22.30;90.80
5334;DHT22;2689;50.954;7.116;2023-07-20T08:21:28;22.10;90.70
5334;DHT22;2689;50.954;7.116;2023-07-20T08:23:55;21.90;90.80
5334;DHT22;2689;50.954;7.116;2023-07-20T08:26:23;21.90;91.10
5334;DHT22;2689;50.954;7.116;2023-07-20T08:28:50;22.00;90.60
5334;DHT22;2689;50.954;7.116;2023-07-20T08:31:17;22.20;90.40
5334;DHT22;2689;50.954;7.116;2023-07-20T08:33:43;22.30;90.50
5334;DHT22;2689;50.954;7.116;2023-07-20T08:36:10;22.40;88.20
5334;DHT22;2689;50.954;7.116;2023-07-20T08:38:38;22.50;89.50
5334;DHT22;2689;50.954;7.116;2023-07-20T08:41:05;22.70;89.00
5334;DHT22;2689;50.954;7.116;2023-07-20T08:43:33;23.00;88.30
5334;DHT22;2689;50.954;7.116;2023-07-20T08:46:00;23.60;85.80
5334;DHT22;2689;50.954;7.116;2023-07-20T08:48:28;24.50;82.90
5334;DHT22;2689;50.954;7.116;2023-07-20T08:50:56;24.80;76.60
5334;DHT22;2689;50.954;7.116;2023-07-20T08:53:25;24.40;76.50
5334;DHT22;2689;50.954;7.116;2023-07-20T08:55:55;24.50;77.30
5334;DHT22;2689;50.954;7.116;2023-07-20T08:58:23;25.00;75.00
5334;DHT22;2689;50.954;7.116;2023-07-20T09:00:52;25.40;74.30
5334;DHT22;2689;50.954;7.116;2023-07-20T09:03:19;25.70;73.70
5334;DHT22;2689;50.954;7.116;2023-07-20T09:05:46;25.60;73.50
5334;DHT22;2689;50.954;7.116;2023-07-20T09:08:13;26.10;74.00
5334;DHT22;2689;50.954;7.116;2023-07-20T09:10:40;26.90;68.20
5334;DHT22;2689;50.954;7.116;2023-07-20T09:13:08;27.70;66.90
5334;DHT22;2689;50.954;7.116;2023-07-20T09:15:35;28.50;64.90
5334;DHT22;2689;50.954;7.116;2023-07-20T09:18:02;29.10;62.70
5334;DHT22;2689;50.954;7.116;2023-07-20T09:20:32;29.00;60.20
5334;DHT22;2689;50.954;7.116;2023-07-20T09:22:59;28.40;60.20
5334;DHT22;2689;50.954;7.116;2023-07-20T09:25:27;27.70;60.10
5334;DHT22;2689;50.954;7.116;2023-07-20T09:27:54;27.00;60.70
5334;DHT22;2689;50.954;7.116;2023-07-20T09:30:25;26.40;61.60
5334;DHT22;2689;50.954;7.116;2023-07-20T09:32:52;25.80;63.20
5334;DHT22;2689;50.954;7.116;2023-07-20T09:35:20;25.20;65.70
5334;DHT22;2689;50.954;7.116;2023-07-20T09:37:49;25.70;66.70
5334;DHT22;2689;50.954;7.116;2023-07-20T09:40:18;26.70;64.20
5334;DHT22;2689;50.954;7.116;2023-07-20T09:42:45;28.10;61.30
5334;DHT22;2689;50.954;7.116;2023-07-20T09:45:12;29.00;60.50
5334;DHT22;2689;50.954;7.116;2023-07-20T09:47:40;29.20;57.30
5334;DHT22;2689;50.954;7.116;2023-07-20T09:50:08;28.90;57.70
5334;DHT22;2689;50.954;7.116;2023-07-20T09:52:40;28.80;57.00
5334;DHT22;2689;50.954;7.116;2023-07-20T09:55:10;28.70;57.20
5334;DHT22;2689;50.954;7.116;2023-07-20T09:57:37;28.10;57.00
5334;DHT22;2689;50.954;7.116;2023-07-20T10:00:06;27.40;59.10
5334;DHT22;2689;50.954;7.116;2023-07-20T10:02:43;26.60;59.90
5334;DHT22;2689;50.954;7.116;2023-07-20T10:05:12;25.90;62.70
5334;DHT22;2689;50.954;7.116;2023-07-20T10:07:44;26.90;62.20
5334;DHT22;2689;50.954;7.116;2023-07-20T10:10:14;28.20;58.60
5334;DHT22;2689;50.954;7.116;2023-07-20T10:12:42;29.60;55.50
5334;DHT22;2689;50.954;7.116;2023-07-20T10:15:12;31.00;53.40
5334;DHT22;2689;50.954;7.116;2023-07-20T10:17:57;31.30;50.40
5334;DHT22;2689;50.954;7.116;2023-07-20T10:20:27;31.70;48.60
5334;DHT22;2689;50.954;7.116;2023-07-20T10:22:54;32.10;47.00
5334;DHT22;2689;50.954;7.116;2023-07-20T10:25:22;32.40;48.60
5334;DHT22;2689;50.954;7.116;2023-07-20T10:27:50;32.30;44.60
5334;DHT22;2689;50.954;7.116;2023-07-20T10:30:17;32.20;44.60
5334;DHT22;2689;50.954;7.116;2023-07-20T10:32:47;31.50;43.00
5334;DHT22;2689;50.954;7.116;2023-07-20T10:35:16;31.40;45.00
5334;DHT22;2689;50.954;7.116;2023-07-20T10:37:50;31.00;44.80
5334;DHT22;2689;50.954;7.116;2023-07-20T10:40:31;30.30;47.10
5334;DHT22;2689;50.954;7.116;2023-07-20T10:43:02;29.90;48.40
5334;DHT22;2689;50.954;7.116;2023-07-20T10:45:38;29.10;49.90
5334;DHT22;2689;50.954;7.116;2023-07-20T10:48:13;29.40;50.70
5334;DHT22;2689;50.954;7.116;2023-07-20T10:50:41;29.70;49.60
5334;DHT22;2689;50.954;7.116;2023-07-20T10:53:12;29.20;49.30
5334;DHT22;2689;50.954;7.116;2023-07-20T10:55:40;28.40;50.90
5334;DHT22;2689;50.954;7.116;2023-07-20T10:58:07;28.40;53.00
5334;DHT22;2689;50.954;7.116;2023-07-20T11:00:35;28.40;51.50
5334;DHT22;2689;50.954;7.116;2023-07-20T11:03:02;27.60;52.20
5334;DHT22;2689;50.954;7.116;2023-07-20T11:05:37;26.90;53.70
5334;DHT22;2689;50.954;7.116;2023-07-20T11:08:09;26.50;55.10
5334;DHT22;2689;50.954;7.116;2023-07-20T11:10:37;26.00;54.20
5334;DHT22;2689;50.954;7.116;2023-07-20T11:13:16;25.90;55.00
5334;DHT22;2689;50.954;7.116;2023-07-20T11:15:47;25.50;55.40
5334;DHT22;2689;50.954;7.116;2023-07-20T11:18:15;25.50;56.10
5334;DHT22;2689;50.954;7.116;2023-07-20T11:20:43;25.60;55.80
5334;DHT22;2689;50.954;7.116;2023-07-20T11:23:10;25.40;56.10
5334;DHT22;2689;50.954;7.116;2023-07-20T11:25:38;25.30;56.50
5334;DHT22;2689;50.954;7.116;2023-07-20T11:28:08;25.10;57.00
5334;DHT22;2689;50.954;7.116;2023-07-20T11:30:36;25.00;58.20
5334;DHT22;2689;50.954;7.116;2023-07-20T11:33:04;24.90;58.30
5334;DHT22;2689;50.954;7.116;2023-07-20T11:35:34;24.70;58.00
5334;DHT22;2689;50.954;7.116;2023-07-20T11:38:02;24.40;58.10
5334;DHT22;2689;50.954;7.116;2023-07-20T11:40:29;24.40;58.70
5334;DHT22;2689;50.954;7.116;2023-07-20T11:42:56;24.40;58.40
5334;DHT22;2689;50.954;7.116;2023-07-20T11:45:22;24.50;58.90
5334;DHT22;2689;50.954;7.116;2023-07-20T11:47:49;24.50;57.20
5334;DHT22;2689;50.954;7.116;2023-07-20T11:50:16;24.30;57.20
5334;DHT22;2689;50.954;7.116;2023-07-20T11:52:43;24.20;57.60
5334;DHT22;2689;50.954;7.116;2023-07-20T11:55:12;24.10;57.20
5334;DHT22;2689;50.954;7.116;2023-07-20T11:57:38;24.10;57.50
5334;DHT22;2689;50.954;7.116;2023-07-20T12:00:06;24.10;57.60
5334;DHT22;2689;50.954;7.116;2023-07-20T12:02:37;24.20;58.40
5334;DHT22;2689;50.954;7.116;2023-07-20T12:05:05;24.50;58.90
5334;DHT22;2689;50.954;7.116;2023-07-20T12:07:36;24.60;56.00
5334;DHT22;2689;50.954;7.116;2023-07-20T12:10:06;24.90;57.10
5334;DHT22;2689;50.954;7.116;2023-07-20T12:12:38;25.10;55.30
5334;DHT22;2689;50.954;7.116;2023-07-20T12:15:20;25.40;54.70
5334;DHT22;2689;50.954;7.116;2023-07-20T12:17:50;26.00;54.40
5334;DHT22;2689;50.954;7.116;2023-07-20T12:20:28;27.00;52.00
5334;DHT22;2689;50.954;7.116;2023-07-20T12:22:57;27.40;49.80
5334;DHT22;2689;50.954;7.116;2023-07-20T12:25:32;27.20;49.50
5334;DHT22;2689;50.954;7.116;2023-07-20T12:28:05;27.10;50.10
5334;DHT22;2689;50.954;7.116;2023-07-20T12:30:31;26.80;50.80
5334;DHT22;2689;50.954;7.116;2023-07-20T12:32:58;26.20;52.00
5334;DHT22;2689;50.954;7.116;2023-07-20T12:35:25;25.80;53.20
5334;DHT22;2689;50.954;7.116;2023-07-20T12:37:52;25.30;54.30
5334;DHT22;2689;50.954;7.116;2023-07-20T12:40:19;24.90;55.80
5334;DHT22;2689;50.954;7.116;2023-07-20T12:42:46;24.70;56.70
5334;DHT22;2689;50.954;7.116;2023-07-20T12:45:14;24.50;57.10
5334;DHT22;2689;50.954;7.116;2023-07-20T12:47:41;24.30;57.20
5334;DHT22;2689;50.954;7.116;2023-07-20T12:50:09;24.10;57.90
5334;DHT22;2689;50.954;7.116;2023-07-20T12:52:37;23.80;58.70
5334;DHT22;2689;50.954;7.116;2023-07-20T12:55:05;23.60;59.10
5334;DHT22;2689;50.954;7.116;2023-07-20T12:57:32;23.40;59.00
5334;DHT22;2689;50.954;7.116;2023-07-20T12:59:59;23.30;59.30
5334;DHT22;2689;50.954;7.116;2023-07-20T13:02:28;23.20;59.40
5334;DHT22;2689;50.954;7.116;2023-07-20T13:04:54;23.00;59.60
5334;DHT22;2689;50.954;7.116;2023-07-20T13:07:29;22.90;60.10
5334;DHT22;2689;50.954;7.116;2023-07-20T13:09:57;22.80;60.40
5334;DHT22;2689;50.954;7.116;2023-07-20T13:12:26;22.80;60.60
5334;DHT22;2689;50.954;7.116;2023-07-20T13:14:52;22.80;61.40
5334;DHT22;2689;50.954;7.116;2023-07-20T13:17:19;22.80;61.30
5334;DHT22;2689;50.954;7.116;2023-07-20T13:19:47;22.90;61.30
5334;DHT22;2689;50.954;7.116;2023-07-20T13:22:14;22.90;62.00
5334;DHT22;2689;50.954;7.116;2023-07-20T13:24:41;23.10;61.70
5334;DHT22;2689;50.954;7.116;2023-07-20T13:27:08;23.30;61.10
5334;DHT22;2689;50.954;7.116;2023-07-20T13:29:34;23.40;60.20
5334;DHT22;2689;50.954;7.116;2023-07-20T13:32:02;23.70;59.80
5334;DHT22;2689;50.954;7.116;2023-07-20T13:34:29;23.80;59.60
5334;DHT22;2689;50.954;7.116;2023-07-20T13:36:57;23.90;58.70
5334;DHT22;2689;50.954;7.116;2023-07-20T13:39:24;24.00;58.10
5334;DHT22;2689;50.954;7.116;2023-07-20T13:41:52;24.00;58.60
5334;DHT22;2689;50.954;7.116;2023-07-20T13:44:19;24.10;58.30
5334;DHT22;2689;50.954;7.116;2023-07-20T13:46:47;24.20;58.60
5334;DHT22;2689;50.954;7.116;2023-07-20T13:49:13;24.20;58.30
5334;DHT22;2689;50.954;7.116;2023-07-20T13:51:41;24.40;58.20
5334;DHT22;2689;50.954;7.116;2023-07-20T13:54:10;24.60;56.00
5334;DHT22;2689;50.954;7.116;2023-07-20T13:56:37;24.40;55.30
5334;DHT22;2689;50.954;7.116;2023-07-20T13:59:04;24.40;56.20
5334;DHT22;2689;50.954;7.116;2023-07-20T14:01:31;24.30;55.80
5334;DHT22;2689;50.954;7.116;2023-07-20T14:03:59;24.30;55.90
5334;DHT22;2689;50.954;7.116;2023-07-20T14:08:55;24.30;57.20
5334;DHT22;2689;50.954;7.116;2023-07-20T14:11:23;24.30;56.90
5334;DHT22;2689;50.954;7.116;2023-07-20T14:13:50;24.50;56.10
5334;DHT22;2689;50.954;7.116;2023-07-20T14:16:18;24.60;56.30
5334;DHT22;2689;50.954;7.116;2023-07-20T14:18:45;24.80;55.10
5334;DHT22;2689;50.954;7.116;2023-07-20T14:21:12;25.00;55.40
5334;DHT22;2689;50.954;7.116;2023-07-20T14:23:39;25.30;54.50
5334;DHT22;2689;50.954;7.116;2023-07-20T14:26:06;25.60;54.00
5334;DHT22;2689;50.954;7.116;2023-07-20T14:28:35;25.80;53.50
5334;DHT22;2689;50.954;7.116;2023-07-20T14:31:03;25.80;52.20
5334;DHT22;2689;50.954;7.116;2023-07-20T14:33:30;25.80;52.20
5334;DHT22;2689;50.954;7.116;2023-07-20T14:35:57;25.70;51.80
5334;DHT22;2689;50.954;7.116;2023-07-20T14:38:23;25.60;52.30
5334;DHT22;2689;50.954;7.116;2023-07-20T14:40:50;25.60;51.70
5334;DHT22;2689;50.954;7.116;2023-07-20T14:43:17;25.60;51.30
5334;DHT22;2689;50.954;7.116;2023-07-20T14:45:45;25.60;51.10
5334;DHT22;2689;50.954;7.116;2023-07-20T14:48:12;25.60;51.60
5334;DHT22;2689;50.954;7.116;2023-07-20T14:50:39;25.60;52.30
5334;DHT22;2689;50.954;7.116;2023-07-20T14:53:05;25.70;52.20
5334;DHT22;2689;50.954;7.116;2023-07-20T14:55:32;25.70;52.20
5334;DHT22;2689;50.954;7.116;2023-07-20T14:57:59;25.70;51.70
5334;DHT22;2689;50.954;7.116;2023-07-20T15:00:26;25.80;52.30
5334;DHT22;2689;50.954;7.116;2023-07-20T15:02:54;25.90;52.30
5334;DHT22;2689;50.954;7.116;2023-07-20T15:05:22;26.00;52.30
5334;DHT22;2689;50.954;7.116;2023-07-20T15:07:49;26.10;53.00
5334;DHT22;2689;50.954;7.116;2023-07-20T15:10:16;26.10;52.70
5334;DHT22;2689;50.954;7.116;2023-07-20T15:12:43;26.10;52.70
5334;DHT22;2689;50.954;7.116;2023-07-20T15:15:11;26.30;51.50
5334;DHT22;2689;50.954;7.116;2023-07-20T15:17:39;26.30;51.90
5334;DHT22;2689;50.954;7.116;2023-07-20T15:20:09;26.20;52.10
5334;DHT22;2689;50.954;7.116;2023-07-20T15:22:36;26.20;52.90
5334;DHT22;2689;50.954;7.116;2023-07-20T15:25:04;26.30;51.80
5334;DHT22;2689;50.954;7.116;2023-07-20T15:27:31;26.40;50.90
5334;DHT22;2689;50.954;7.116;2023-07-20T15:29:57;26.40;50.70
5334;DHT22;2689;50.954;7.116;2023-07-20T15:32:24;26.20;50.50
5334;DHT22;2689;50.954;7.116;2023-07-20T15:34:51;26.10;50.70
5334;DHT22;2689;50.954;7.116;2023-07-20T15:37:19;25.90;51.30
5334;DHT22;2689;50.954;7.116;2023-07-20T15:39:48;25.80;51.10
5334;DHT22;2689;50.954;7.116;2023-07-20T15:42:13;25.80;52.20
5334;DHT22;2689;50.954;7.116;2023-07-20T15:44:40;25.70;52.40
5334;DHT22;2689;50.954;7.116;2023-07-20T15:47:08;25.70;52.80
5334;DHT22;2689;50.954;7.116;2023-07-20T15:49:37;25.70;53.90
5334;DHT22;2689;50.954;7.116;2023-07-20T15:52:05;25.90;53.00
5334;DHT22;2689;50.954;7.116;2023-07-20T15:54:33;26.00;52.30
5334;DHT22;2689;50.954;7.116;2023-07-20T15:56:59;26.00;52.40
5334;DHT22;2689;50.954;7.116;2023-07-20T15:59:26;26.00;53.70
5334;DHT22;2689;50.954;7.116;2023-07-20T16:01:53;26.00;53.60
5334;DHT22;2689;50.954;7.116;2023-07-20T16:04:20;26.10;54.10
5334;DHT22;2689;50.954;7.116;2023-07-20T16:06:46;26.20;53.70
5334;DHT22;2689;50.954;7.116;2023-07-20T16:09:13;26.30;52.80